Canadys, South Carolina
Current Conditions -  °F | °C
As of 1:15 PM on Friday 19 Dec 2014 (Local Time) from KRBW Reporting Station
Clear Clear  
Wind Chill: 61°   Ceiling: Unl
Heat Index: 61°   Visibility: 10mi
Dew Point: 37°   Wind: 3mph
Humidity: 42%   Direction: 150°SSE
Pressure: 30.12"   Gusts: NA
Location:  33.06°N, 80.62°W
Report Text: KRBW 191815Z AUTO 15003KT 10SM CLR 16/03 A3012 RMK AO2
Loading
Personal Weather Stations






























Interactive Weather Map New forecast layout! Learn more

10-Day Weather Forecast

Advertisements
Track Severe Weather on mobile